sensor_id;sensor_type;location;lat;lon;timestamp;P1;durP1;ratioP1;P2;durP2;ratioP2
13002;SDS011;66869;57.706;11.922;2023-05-10T00:01:20;0.40;;;0.40;;
13002;SDS011;66869;57.706;11.922;2023-05-10T00:03:47;0.43;;;0.43;;
13002;SDS011;66869;57.706;11.922;2023-05-10T00:06:13;0.40;;;0.40;;
13002;SDS011;66869;57.706;11.922;2023-05-10T00:08:39;0.40;;;0.32;;
13002;SDS011;66869;57.706;11.922;2023-05-10T00:11:06;0.30;;;0.30;;
13002;SDS011;66869;57.706;11.922;2023-05-10T00:13:32;0.47;;;0.40;;
13002;SDS011;66869;57.706;11.922;2023-05-10T00:15:58;0.20;;;0.20;;
13002;SDS011;66869;57.706;11.922;2023-05-10T00:18:24;0.40;;;0.40;;
13002;SDS011;66869;57.706;11.922;2023-05-10T00:20:50;0.55;;;0.40;;
13002;SDS011;66869;57.706;11.922;2023-05-10T00:23:21;0.90;;;0.43;;
13002;SDS011;66869;57.706;11.922;2023-05-10T00:25:47;0.40;;;0.40;;
13002;SDS011;66869;57.706;11.922;2023-05-10T00:28:13;0.82;;;0.40;;
13002;SDS011;66869;57.706;11.922;2023-05-10T00:30:40;0.28;;;0.28;;
13002;SDS011;66869;57.706;11.922;2023-05-10T00:33:07;2.55;;;0.40;;
13002;SDS011;66869;57.706;11.922;2023-05-10T00:35:33;0.30;;;0.30;;
13002;SDS011;66869;57.706;11.922;2023-05-10T00:38:00;1.45;;;0.40;;
13002;SDS011;66869;57.706;11.922;2023-05-10T00:40:27;0.40;;;0.40;;
13002;SDS011;66869;57.706;11.922;2023-05-10T00:42:55;0.45;;;0.35;;
13002;SDS011;66869;57.706;11.922;2023-05-10T00:45:22;0.85;;;0.40;;
13002;SDS011;66869;57.706;11.922;2023-05-10T00:47:48;0.30;;;0.30;;
13002;SDS011;66869;57.706;11.922;2023-05-10T00:50:15;0.40;;;0.40;;
13002;SDS011;66869;57.706;11.922;2023-05-10T00:52:41;0.50;;;0.30;;
13002;SDS011;66869;57.706;11.922;2023-05-10T00:55:07;0.57;;;0.40;;
13002;SDS011;66869;57.706;11.922;2023-05-10T00:57:36;0.20;;;0.20;;
13002;SDS011;66869;57.706;11.922;2023-05-10T01:00:04;0.40;;;0.40;;
13002;SDS011;66869;57.706;11.922;2023-05-10T01:02:32;1.70;;;0.43;;
13002;SDS011;66869;57.706;11.922;2023-05-10T01:04:59;0.38;;;0.30;;
13002;SDS011;66869;57.706;11.922;2023-05-10T01:07:26;0.40;;;0.40;;
13002;SDS011;66869;57.706;11.922;2023-05-10T01:09:52;0.30;;;0.30;;
13002;SDS011;66869;57.706;11.922;2023-05-10T01:12:19;0.30;;;0.30;;
13002;SDS011;66869;57.706;11.922;2023-05-10T01:14:46;0.35;;;0.35;;
13002;SDS011;66869;57.706;11.922;2023-05-10T01:17:32;0.35;;;0.35;;
13002;SDS011;66869;57.706;11.922;2023-05-10T01:19:58;0.30;;;0.30;;
13002;SDS011;66869;57.706;11.922;2023-05-10T01:25:48;0.47;;;0.47;;
13002;SDS011;66869;57.706;11.922;2023-05-10T01:36:40;0.32;;;0.30;;
13002;SDS011;66869;57.706;11.922;2023-05-10T01:39:23;0.47;;;0.30;;
13002;SDS011;66869;57.706;11.922;2023-05-10T01:42:34;0.20;;;0.20;;
13002;SDS011;66869;57.706;11.922;2023-05-10T01:44:44;0.32;;;0.32;;
13002;SDS011;66869;57.706;11.922;2023-05-10T01:47:21;2.28;;;0.40;;
13002;SDS011;66869;57.706;11.922;2023-05-10T01:49:52;0.55;;;0.43;;
13002;SDS011;66869;57.706;11.922;2023-05-10T01:52:22;0.60;;;0.38;;
13002;SDS011;66869;57.706;11.922;2023-05-10T01:55:11;0.30;;;0.30;;
13002;SDS011;66869;57.706;11.922;2023-05-10T01:57:40;0.40;;;0.40;;
13002;SDS011;66869;57.706;11.922;2023-05-10T02:00:09;1.20;;;0.30;;
13002;SDS011;66869;57.706;11.922;2023-05-10T02:02:39;0.75;;;0.30;;
13002;SDS011;66869;57.706;11.922;2023-05-10T02:05:08;1.02;;;0.50;;
13002;SDS011;66869;57.706;11.922;2023-05-10T02:07:36;1.25;;;0.50;;
13002;SDS011;66869;57.706;11.922;2023-05-10T02:10:06;1.50;;;0.30;;
13002;SDS011;66869;57.706;11.922;2023-05-10T02:12:37;1.35;;;0.40;;
13002;SDS011;66869;57.706;11.922;2023-05-10T02:15:06;0.57;;;0.50;;
13002;SDS011;66869;57.706;11.922;2023-05-10T02:17:34;1.00;;;0.35;;
13002;SDS011;66869;57.706;11.922;2023-05-10T02:20:02;1.35;;;0.30;;
13002;SDS011;66869;57.706;11.922;2023-05-10T02:22:33;0.75;;;0.40;;
13002;SDS011;66869;57.706;11.922;2023-05-10T02:25:04;0.47;;;0.47;;
13002;SDS011;66869;57.706;11.922;2023-05-10T02:27:31;0.40;;;0.40;;
13002;SDS011;66869;57.706;11.922;2023-05-10T02:29:57;0.45;;;0.45;;
13002;SDS011;66869;57.706;11.922;2023-05-10T02:32:24;0.52;;;0.50;;
13002;SDS011;66869;57.706;11.922;2023-05-10T02:34:51;0.40;;;0.40;;
13002;SDS011;66869;57.706;11.922;2023-05-10T02:37:19;0.25;;;0.25;;
13002;SDS011;66869;57.706;11.922;2023-05-10T02:39:48;0.65;;;0.50;;
13002;SDS011;66869;57.706;11.922;2023-05-10T02:42:17;0.35;;;0.32;;
13002;SDS011;66869;57.706;11.922;2023-05-10T02:44:48;0.68;;;0.40;;
13002;SDS011;66869;57.706;11.922;2023-05-10T02:47:14;0.30;;;0.30;;
13002;SDS011;66869;57.706;11.922;2023-05-10T02:49:41;0.30;;;0.30;;
13002;SDS011;66869;57.706;11.922;2023-05-10T02:52:08;0.40;;;0.40;;
13002;SDS011;66869;57.706;11.922;2023-05-10T02:54:39;0.55;;;0.30;;
13002;SDS011;66869;57.706;11.922;2023-05-10T02:57:08;0.40;;;0.40;;
13002;SDS011;66869;57.706;11.922;2023-05-10T03:00:04;0.35;;;0.35;;
13002;SDS011;66869;57.706;11.922;2023-05-10T03:02:31;0.32;;;0.28;;
13002;SDS011;66869;57.706;11.922;2023-05-10T03:04:57;2.55;;;0.30;;
13002;SDS011;66869;57.706;11.922;2023-05-10T03:07:24;1.27;;;0.40;;
13002;SDS011;66869;57.706;11.922;2023-05-10T03:09:52;0.30;;;0.30;;
13002;SDS011;66869;57.706;11.922;2023-05-10T03:15:09;0.77;;;0.63;;
13002;SDS011;66869;57.706;11.922;2023-05-10T03:17:54;0.28;;;0.22;;
13002;SDS011;66869;57.706;11.922;2023-05-10T03:20:26;0.73;;;0.40;;
13002;SDS011;66869;57.706;11.922;2023-05-10T03:23:07;0.47;;;0.40;;
13002;SDS011;66869;57.706;11.922;2023-05-10T03:25:40;0.40;;;0.40;;
13002;SDS011;66869;57.706;11.922;2023-05-10T03:28:07;0.30;;;0.30;;
13002;SDS011;66869;57.706;11.922;2023-05-10T03:30:37;0.55;;;0.55;;
13002;SDS011;66869;57.706;11.922;2023-05-10T03:33:06;0.30;;;0.30;;
13002;SDS011;66869;57.706;11.922;2023-05-10T03:35:33;1.52;;;0.60;;
13002;SDS011;66869;57.706;11.922;2023-05-10T03:38:00;4.38;;;0.40;;
13002;SDS011;66869;57.706;11.922;2023-05-10T03:40:27;1.55;;;0.90;;
13002;SDS011;66869;57.706;11.922;2023-05-10T03:43:01;1.13;;;0.45;;
13002;SDS011;66869;57.706;11.922;2023-05-10T03:45:28;0.93;;;0.32;;
13002;SDS011;66869;57.706;11.922;2023-05-10T03:47:54;0.30;;;0.30;;
13002;SDS011;66869;57.706;11.922;2023-05-10T03:50:21;2.35;;;0.50;;
13002;SDS011;66869;57.706;11.922;2023-05-10T03:53:01;0.43;;;0.43;;
13002;SDS011;66869;57.706;11.922;2023-05-10T03:55:41;0.40;;;0.30;;
13002;SDS011;66869;57.706;11.922;2023-05-10T03:58:10;1.92;;;0.40;;
13002;SDS011;66869;57.706;11.922;2023-05-10T04:00:36;0.40;;;0.40;;
13002;SDS011;66869;57.706;11.922;2023-05-10T04:03:04;1.67;;;0.60;;
13002;SDS011;66869;57.706;11.922;2023-05-10T04:05:30;2.65;;;0.43;;
13002;SDS011;66869;57.706;11.922;2023-05-10T04:07:55;0.50;;;0.32;;
13002;SDS011;66869;57.706;11.922;2023-05-10T04:10:23;0.40;;;0.40;;
13002;SDS011;66869;57.706;11.922;2023-05-10T04:12:50;0.77;;;0.50;;
13002;SDS011;66869;57.706;11.922;2023-05-10T04:15:16;1.85;;;0.50;;
13002;SDS011;66869;57.706;11.922;2023-05-10T04:17:43;0.30;;;0.30;;
13002;SDS011;66869;57.706;11.922;2023-05-10T04:20:10;0.47;;;0.35;;
13002;SDS011;66869;57.706;11.922;2023-05-10T04:22:37;0.35;;;0.30;;
13002;SDS011;66869;57.706;11.922;2023-05-10T04:25:03;0.30;;;0.30;;
13002;SDS011;66869;57.706;11.922;2023-05-10T04:27:31;0.30;;;0.30;;
13002;SDS011;66869;57.706;11.922;2023-05-10T04:29:57;1.30;;;0.32;;
13002;SDS011;66869;57.706;11.922;2023-05-10T04:32:24;0.40;;;0.40;;
13002;SDS011;66869;57.706;11.922;2023-05-10T04:34:51;0.40;;;0.30;;
13002;SDS011;66869;57.706;11.922;2023-05-10T04:37:19;0.70;;;0.38;;
13002;SDS011;66869;57.706;11.922;2023-05-10T04:39:47;0.95;;;0.60;;
13002;SDS011;66869;57.706;11.922;2023-05-10T04:42:15;2.60;;;0.77;;
13002;SDS011;66869;57.706;11.922;2023-05-10T04:44:41;1.02;;;0.35;;
13002;SDS011;66869;57.706;11.922;2023-05-10T04:47:06;0.50;;;0.40;;
13002;SDS011;66869;57.706;11.922;2023-05-10T04:49:33;0.40;;;0.40;;
13002;SDS011;66869;57.706;11.922;2023-05-10T04:51:58;0.30;;;0.30;;
13002;SDS011;66869;57.706;11.922;2023-05-10T04:54:24;4.75;;;1.40;;
13002;SDS011;66869;57.706;11.922;2023-05-10T04:56:51;15.82;;;3.92;;
13002;SDS011;66869;57.706;11.922;2023-05-10T04:59:18;12.88;;;3.10;;
13002;SDS011;66869;57.706;11.922;2023-05-10T05:01:45;14.52;;;3.60;;
13002;SDS011;66869;57.706;11.922;2023-05-10T05:04:11;20.23;;;5.03;;
13002;SDS011;66869;57.706;11.922;2023-05-10T05:06:38;28.10;;;6.25;;
13002;SDS011;66869;57.706;11.922;2023-05-10T05:09:04;17.40;;;4.50;;
13002;SDS011;66869;57.706;11.922;2023-05-10T05:11:31;23.10;;;4.60;;
13002;SDS011;66869;57.706;11.922;2023-05-10T05:13:58;15.35;;;3.95;;
13002;SDS011;66869;57.706;11.922;2023-05-10T05:16:25;16.08;;;3.15;;
13002;SDS011;66869;57.706;11.922;2023-05-10T05:18:52;12.38;;;2.80;;
13002;SDS011;66869;57.706;11.922;2023-05-10T05:21:19;14.50;;;2.83;;
13002;SDS011;66869;57.706;11.922;2023-05-10T05:23:46;7.90;;;2.22;;
13002;SDS011;66869;57.706;11.922;2023-05-10T05:26:13;10.25;;;2.17;;
13002;SDS011;66869;57.706;11.922;2023-05-10T05:28:41;7.93;;;1.77;;
13002;SDS011;66869;57.706;11.922;2023-05-10T05:31:07;4.75;;;1.70;;
13002;SDS011;66869;57.706;11.922;2023-05-10T05:33:34;4.82;;;1.45;;
13002;SDS011;66869;57.706;11.922;2023-05-10T05:36:04;4.80;;;1.40;;
13002;SDS011;66869;57.706;11.922;2023-05-10T05:38:32;3.38;;;1.20;;
13002;SDS011;66869;57.706;11.922;2023-05-10T05:40:57;5.55;;;1.27;;
13002;SDS011;66869;57.706;11.922;2023-05-10T05:43:24;3.78;;;1.40;;
13002;SDS011;66869;57.706;11.922;2023-05-10T05:45:51;3.50;;;1.15;;
13002;SDS011;66869;57.706;11.922;2023-05-10T05:48:19;2.10;;;0.88;;
13002;SDS011;66869;57.706;11.922;2023-05-10T05:50:46;2.45;;;1.20;;
13002;SDS011;66869;57.706;11.922;2023-05-10T05:53:12;2.70;;;1.00;;
13002;SDS011;66869;57.706;11.922;2023-05-10T05:55:39;2.55;;;0.85;;
13002;SDS011;66869;57.706;11.922;2023-05-10T05:58:05;2.35;;;0.82;;
13002;SDS011;66869;57.706;11.922;2023-05-10T06:00:31;3.58;;;1.00;;
13002;SDS011;66869;57.706;11.922;2023-05-10T06:02:56;1.73;;;0.90;;
13002;SDS011;66869;57.706;11.922;2023-05-10T06:05:24;1.38;;;0.80;;
13002;SDS011;66869;57.706;11.922;2023-05-10T06:07:51;1.70;;;0.70;;
13002;SDS011;66869;57.706;11.922;2023-05-10T06:10:17;1.65;;;0.68;;
13002;SDS011;66869;57.706;11.922;2023-05-10T06:12:44;2.03;;;0.68;;
13002;SDS011;66869;57.706;11.922;2023-05-10T06:15:11;0.40;;;0.40;;
13002;SDS011;66869;57.706;11.922;2023-05-10T06:17:37;2.85;;;0.60;;
13002;SDS011;66869;57.706;11.922;2023-05-10T06:20:03;1.63;;;0.60;;
13002;SDS011;66869;57.706;11.922;2023-05-10T06:22:30;1.42;;;0.60;;
13002;SDS011;66869;57.706;11.922;2023-05-10T06:24:56;1.00;;;0.57;;
13002;SDS011;66869;57.706;11.922;2023-05-10T06:27:22;0.55;;;0.40;;
13002;SDS011;66869;57.706;11.922;2023-05-10T06:29:50;1.45;;;0.40;;
13002;SDS011;66869;57.706;11.922;2023-05-10T06:32:17;0.93;;;0.68;;
13002;SDS011;66869;57.706;11.922;2023-05-10T06:34:42;1.48;;;0.60;;
13002;SDS011;66869;57.706;11.922;2023-05-10T06:37:10;0.82;;;0.50;;
13002;SDS011;66869;57.706;11.922;2023-05-10T06:39:37;0.40;;;0.40;;
13002;SDS011;66869;57.706;11.922;2023-05-10T06:42:04;1.10;;;0.50;;
13002;SDS011;66869;57.706;11.922;2023-05-10T06:44:30;1.02;;;0.30;;
13002;SDS011;66869;57.706;11.922;2023-05-10T06:46:57;0.50;;;0.50;;
13002;SDS011;66869;57.706;11.922;2023-05-10T06:49:22;0.60;;;0.50;;
13002;SDS011;66869;57.706;11.922;2023-05-10T06:51:48;0.80;;;0.43;;
13002;SDS011;66869;57.706;11.922;2023-05-10T06:54:14;0.40;;;0.40;;
13002;SDS011;66869;57.706;11.922;2023-05-10T06:56:41;0.90;;;0.40;;
13002;SDS011;66869;57.706;11.922;2023-05-10T06:59:07;1.58;;;0.50;;
13002;SDS011;66869;57.706;11.922;2023-05-10T07:01:34;0.45;;;0.40;;
13002;SDS011;66869;57.706;11.922;2023-05-10T07:04:00;0.40;;;0.40;;
13002;SDS011;66869;57.706;11.922;2023-05-10T07:06:27;0.50;;;0.50;;
13002;SDS011;66869;57.706;11.922;2023-05-10T07:08:54;0.70;;;0.40;;
13002;SDS011;66869;57.706;11.922;2023-05-10T07:11:20;0.47;;;0.47;;
13002;SDS011;66869;57.706;11.922;2023-05-10T07:13:47;0.55;;;0.50;;
13002;SDS011;66869;57.706;11.922;2023-05-10T07:16:15;0.40;;;0.40;;
13002;SDS011;66869;57.706;11.922;2023-05-10T07:18:41;0.57;;;0.57;;
13002;SDS011;66869;57.706;11.922;2023-05-10T07:21:08;0.43;;;0.40;;
13002;SDS011;66869;57.706;11.922;2023-05-10T07:23:35;0.52;;;0.52;;
13002;SDS011;66869;57.706;11.922;2023-05-10T07:26:01;0.30;;;0.30;;
13002;SDS011;66869;57.706;11.922;2023-05-10T07:28:27;0.50;;;0.50;;
13002;SDS011;66869;57.706;11.922;2023-05-10T07:30:53;0.35;;;0.35;;
13002;SDS011;66869;57.706;11.922;2023-05-10T07:33:20;0.30;;;0.30;;
13002;SDS011;66869;57.706;11.922;2023-05-10T07:35:45;1.33;;;0.40;;
13002;SDS011;66869;57.706;11.922;2023-05-10T07:38:12;0.30;;;0.30;;
13002;SDS011;66869;57.706;11.922;2023-05-10T07:40:49;0.30;;;0.30;;
13002;SDS011;66869;57.706;11.922;2023-05-10T07:43:15;1.40;;;0.38;;
13002;SDS011;66869;57.706;11.922;2023-05-10T07:45:42;0.50;;;0.30;;
13002;SDS011;66869;57.706;11.922;2023-05-10T07:48:08;0.40;;;0.40;;
13002;SDS011;66869;57.706;11.922;2023-05-10T07:50:35;0.28;;;0.28;;
13002;SDS011;66869;57.706;11.922;2023-05-10T07:53:00;0.93;;;0.30;;
13002;SDS011;66869;57.706;11.922;2023-05-10T07:55:27;0.93;;;0.50;;
13002;SDS011;66869;57.706;11.922;2023-05-10T07:57:54;0.30;;;0.30;;
13002;SDS011;66869;57.706;11.922;2023-05-10T08:00:20;0.40;;;0.40;;
13002;SDS011;66869;57.706;11.922;2023-05-10T08:02:47;0.30;;;0.30;;
13002;SDS011;66869;57.706;11.922;2023-05-10T08:05:14;0.43;;;0.43;;
13002;SDS011;66869;57.706;11.922;2023-05-10T08:07:41;0.60;;;0.60;;
13002;SDS011;66869;57.706;11.922;2023-05-10T08:10:09;1.02;;;0.40;;
13002;SDS011;66869;57.706;11.922;2023-05-10T08:12:38;0.63;;;0.60;;
13002;SDS011;66869;57.706;11.922;2023-05-10T08:15:03;0.93;;;0.40;;
13002;SDS011;66869;57.706;11.922;2023-05-10T08:17:30;0.47;;;0.47;;
13002;SDS011;66869;57.706;11.922;2023-05-10T08:19:57;0.47;;;0.47;;
13002;SDS011;66869;57.706;11.922;2023-05-10T08:22:23;1.55;;;0.40;;
13002;SDS011;66869;57.706;11.922;2023-05-10T08:24:50;0.20;;;0.20;;
13002;SDS011;66869;57.706;11.922;2023-05-10T08:27:16;0.88;;;0.28;;
13002;SDS011;66869;57.706;11.922;2023-05-10T08:29:43;0.47;;;0.40;;
13002;SDS011;66869;57.706;11.922;2023-05-10T08:32:10;0.35;;;0.35;;
13002;SDS011;66869;57.706;11.922;2023-05-10T08:34:37;0.52;;;0.52;;
13002;SDS011;66869;57.706;11.922;2023-05-10T08:37:04;0.30;;;0.30;;
13002;SDS011;66869;57.706;11.922;2023-05-10T08:39:33;0.40;;;0.40;;
13002;SDS011;66869;57.706;11.922;2023-05-10T08:42:02;0.30;;;0.20;;
13002;SDS011;66869;57.706;11.922;2023-05-10T08:44:34;0.30;;;0.30;;
13002;SDS011;66869;57.706;11.922;2023-05-10T08:47:07;0.45;;;0.30;;
13002;SDS011;66869;57.706;11.922;2023-05-10T08:49:35;0.30;;;0.30;;
13002;SDS011;66869;57.706;11.922;2023-05-10T08:52:03;0.30;;;0.30;;
13002;SDS011;66869;57.706;11.922;2023-05-10T08:54:32;0.40;;;0.40;;
13002;SDS011;66869;57.706;11.922;2023-05-10T08:56:59;0.40;;;0.40;;
13002;SDS011;66869;57.706;11.922;2023-05-10T08:59:25;0.30;;;0.30;;
13002;SDS011;66869;57.706;11.922;2023-05-10T09:01:52;0.40;;;0.40;;
13002;SDS011;66869;57.706;11.922;2023-05-10T09:04:19;0.30;;;0.30;;
13002;SDS011;66869;57.706;11.922;2023-05-10T09:06:47;0.30;;;0.30;;
13002;SDS011;66869;57.706;11.922;2023-05-10T09:09:14;0.50;;;0.50;;
13002;SDS011;66869;57.706;11.922;2023-05-10T09:11:41;0.40;;;0.40;;
13002;SDS011;66869;57.706;11.922;2023-05-10T09:14:07;0.40;;;0.40;;
13002;SDS011;66869;57.706;11.922;2023-05-10T09:16:35;0.30;;;0.30;;
13002;SDS011;66869;57.706;11.922;2023-05-10T09:19:02;0.85;;;0.40;;
13002;SDS011;66869;57.706;11.922;2023-05-10T09:21:29;0.30;;;0.30;;
13002;SDS011;66869;57.706;11.922;2023-05-10T09:23:56;0.60;;;0.40;;
13002;SDS011;66869;57.706;11.922;2023-05-10T09:26:23;0.30;;;0.30;;
13002;SDS011;66869;57.706;11.922;2023-05-10T09:28:55;0.35;;;0.35;;
13002;SDS011;66869;57.706;11.922;2023-05-10T09:31:22;0.30;;;0.30;;
13002;SDS011;66869;57.706;11.922;2023-05-10T09:33:51;0.40;;;0.40;;
13002;SDS011;66869;57.706;11.922;2023-05-10T09:36:18;0.52;;;0.32;;
13002;SDS011;66869;57.706;11.922;2023-05-10T09:38:51;0.40;;;0.40;;
13002;SDS011;66869;57.706;11.922;2023-05-10T09:41:21;0.40;;;0.40;;
13002;SDS011;66869;57.706;11.922;2023-05-10T09:43:48;0.75;;;0.60;;
13002;SDS011;66869;57.706;11.922;2023-05-10T09:46:15;0.52;;;0.50;;
13002;SDS011;66869;57.706;11.922;2023-05-10T09:48:45;0.50;;;0.50;;
13002;SDS011;66869;57.706;11.922;2023-05-10T09:51:20;0.40;;;0.40;;
13002;SDS011;66869;57.706;11.922;2023-05-10T09:53:47;0.47;;;0.40;;
13002;SDS011;66869;57.706;11.922;2023-05-10T09:56:15;0.35;;;0.35;;
13002;SDS011;66869;57.706;11.922;2023-05-10T09:59:05;0.80;;;0.57;;
13002;SDS011;66869;57.706;11.922;2023-05-10T10:01:32;0.55;;;0.45;;
13002;SDS011;66869;57.706;11.922;2023-05-10T10:03:59;0.52;;;0.40;;
13002;SDS011;66869;57.706;11.922;2023-05-10T10:06:45;0.57;;;0.57;;
13002;SDS011;66869;57.706;11.922;2023-05-10T10:09:16;0.40;;;0.40;;
13002;SDS011;66869;57.706;11.922;2023-05-10T10:11:45;0.35;;;0.35;;
13002;SDS011;66869;57.706;11.922;2023-05-10T10:14:12;0.35;;;0.35;;
13002;SDS011;66869;57.706;11.922;2023-05-10T10:16:38;1.45;;;0.40;;
13002;SDS011;66869;57.706;11.922;2023-05-10T10:19:05;0.40;;;0.40;;
13002;SDS011;66869;57.706;11.922;2023-05-10T10:21:32;0.38;;;0.30;;
13002;SDS011;66869;57.706;11.922;2023-05-10T10:23:58;0.38;;;0.38;;
13002;SDS011;66869;57.706;11.922;2023-05-10T10:26:25;0.28;;;0.28;;
13002;SDS011;66869;57.706;11.922;2023-05-10T10:34:30;0.68;;;0.40;;
13002;SDS011;66869;57.706;11.922;2023-05-10T10:36:58;0.50;;;0.50;;
13002;SDS011;66869;57.706;11.922;2023-05-10T10:39:29;0.40;;;0.32;;
13002;SDS011;66869;57.706;11.922;2023-05-10T10:41:57;0.40;;;0.40;;
13002;SDS011;66869;57.706;11.922;2023-05-10T10:44:27;0.40;;;0.40;;
13002;SDS011;66869;57.706;11.922;2023-05-10T10:50:02;0.22;;;0.22;;
13002;SDS011;66869;57.706;11.922;2023-05-10T10:55:18;0.30;;;0.30;;
13002;SDS011;66869;57.706;11.922;2023-05-10T10:57:58;0.50;;;0.50;;
13002;SDS011;66869;57.706;11.922;2023-05-10T11:00:30;0.50;;;0.50;;
13002;SDS011;66869;57.706;11.922;2023-05-10T11:03:11;0.30;;;0.30;;
13002;SDS011;66869;57.706;11.922;2023-05-10T11:05:47;0.95;;;0.70;;
13002;SDS011;66869;57.706;11.922;2023-05-10T11:08:33;0.30;;;0.30;;
13002;SDS011;66869;57.706;11.922;2023-05-10T11:11:03;0.40;;;0.40;;
13002;SDS011;66869;57.706;11.922;2023-05-10T11:13:44;0.20;;;0.20;;
13002;SDS011;66869;57.706;11.922;2023-05-10T11:16:14;0.50;;;0.50;;
13002;SDS011;66869;57.706;11.922;2023-05-10T11:18:41;0.20;;;0.20;;
13002;SDS011;66869;57.706;11.922;2023-05-10T11:21:20;0.30;;;0.30;;
13002;SDS011;66869;57.706;11.922;2023-05-10T11:23:50;0.30;;;0.30;;
13002;SDS011;66869;57.706;11.922;2023-05-10T11:26:17;0.50;;;0.40;;
13002;SDS011;66869;57.706;11.922;2023-05-10T11:28:48;0.60;;;0.50;;
13002;SDS011;66869;57.706;11.922;2023-05-10T11:31:15;1.20;;;0.50;;
13002;SDS011;66869;57.706;11.922;2023-05-10T11:33:51;0.30;;;0.30;;
13002;SDS011;66869;57.706;11.922;2023-05-10T11:36:27;0.43;;;0.30;;
13002;SDS011;66869;57.706;11.922;2023-05-10T11:38:54;0.43;;;0.40;;
13002;SDS011;66869;57.706;11.922;2023-05-10T11:41:21;0.40;;;0.40;;
13002;SDS011;66869;57.706;11.922;2023-05-10T11:43:54;0.43;;;0.40;;
13002;SDS011;66869;57.706;11.922;2023-05-10T11:46:22;0.50;;;0.50;;
13002;SDS011;66869;57.706;11.922;2023-05-10T11:48:49;0.30;;;0.30;;
13002;SDS011;66869;57.706;11.922;2023-05-10T11:51:20;0.55;;;0.50;;
13002;SDS011;66869;57.706;11.922;2023-05-10T11:53:46;0.30;;;0.30;;
13002;SDS011;66869;57.706;11.922;2023-05-10T11:56:13;0.70;;;0.40;;
13002;SDS011;66869;57.706;11.922;2023-05-10T11:58:39;0.20;;;0.20;;
13002;SDS011;66869;57.706;11.922;2023-05-10T12:01:05;0.28;;;0.28;;
13002;SDS011;66869;57.706;11.922;2023-05-10T12:03:33;0.63;;;0.63;;
13002;SDS011;66869;57.706;11.922;2023-05-10T12:06:01;0.40;;;0.40;;
13002;SDS011;66869;57.706;11.922;2023-05-10T12:08:30;0.25;;;0.25;;
13002;SDS011;66869;57.706;11.922;2023-05-10T12:11:09;0.63;;;0.40;;
13002;SDS011;66869;57.706;11.922;2023-05-10T12:13:42;0.40;;;0.40;;
13002;SDS011;66869;57.706;11.922;2023-05-10T12:16:18;0.30;;;0.30;;
13002;SDS011;66869;57.706;11.922;2023-05-10T12:18:45;0.40;;;0.40;;
13002;SDS011;66869;57.706;11.922;2023-05-10T12:21:14;1.27;;;0.38;;
13002;SDS011;66869;57.706;11.922;2023-05-10T12:23:42;0.40;;;0.30;;
13002;SDS011;66869;57.706;11.922;2023-05-10T12:26:11;1.75;;;0.43;;
13002;SDS011;66869;57.706;11.922;2023-05-10T12:28:38;0.98;;;0.30;;
13002;SDS011;66869;57.706;11.922;2023-05-10T12:31:08;0.30;;;0.30;;
13002;SDS011;66869;57.706;11.922;2023-05-10T12:33:37;0.30;;;0.30;;
13002;SDS011;66869;57.706;11.922;2023-05-10T12:36:05;0.50;;;0.20;;
13002;SDS011;66869;57.706;11.922;2023-05-10T12:38:44;0.30;;;0.30;;
13002;SDS011;66869;57.706;11.922;2023-05-10T12:41:15;0.35;;;0.35;;
13002;SDS011;66869;57.706;11.922;2023-05-10T12:43:42;0.30;;;0.30;;
13002;SDS011;66869;57.706;11.922;2023-05-10T12:46:11;0.20;;;0.20;;
13002;SDS011;66869;57.706;11.922;2023-05-10T12:48:38;1.38;;;0.32;;
13002;SDS011;66869;57.706;11.922;2023-05-10T12:51:05;0.35;;;0.35;;
13002;SDS011;66869;57.706;11.922;2023-05-10T12:53:32;0.20;;;0.20;;
13002;SDS011;66869;57.706;11.922;2023-05-10T12:55:58;0.47;;;0.40;;
13002;SDS011;66869;57.706;11.922;2023-05-10T12:58:24;0.30;;;0.30;;
13002;SDS011;66869;57.706;11.922;2023-05-10T13:00:51;0.25;;;0.25;;
13002;SDS011;66869;57.706;11.922;2023-05-10T13:03:19;0.20;;;0.20;;
13002;SDS011;66869;57.706;11.922;2023-05-10T13:05:46;0.28;;;0.28;;
13002;SDS011;66869;57.706;11.922;2023-05-10T13:08:13;0.20;;;0.20;;
13002;SDS011;66869;57.706;11.922;2023-05-10T13:10:38;0.40;;;0.40;;
13002;SDS011;66869;57.706;11.922;2023-05-10T13:13:04;0.30;;;0.30;;
13002;SDS011;66869;57.706;11.922;2023-05-10T13:15:32;1.08;;;0.40;;
13002;SDS011;66869;57.706;11.922;2023-05-10T13:17:58;0.30;;;0.30;;
13002;SDS011;66869;57.706;11.922;2023-05-10T13:20:25;0.40;;;0.40;;
13002;SDS011;66869;57.706;11.922;2023-05-10T13:22:51;0.50;;;0.38;;
13002;SDS011;66869;57.706;11.922;2023-05-10T13:25:19;0.40;;;0.40;;
13002;SDS011;66869;57.706;11.922;2023-05-10T13:27:46;0.50;;;0.50;;
13002;SDS011;66869;57.706;11.922;2023-05-10T13:30:14;0.50;;;0.50;;
13002;SDS011;66869;57.706;11.922;2023-05-10T13:32:40;1.10;;;0.70;;
13002;SDS011;66869;57.706;11.922;2023-05-10T13:35:07;0.60;;;0.60;;
13002;SDS011;66869;57.706;11.922;2023-05-10T13:37:34;0.75;;;0.70;;
13002;SDS011;66869;57.706;11.922;2023-05-10T13:40:02;0.50;;;0.50;;
13002;SDS011;66869;57.706;11.922;2023-05-10T13:42:31;1.10;;;0.70;;
13002;SDS011;66869;57.706;11.922;2023-05-10T13:45:00;1.55;;;0.65;;
13002;SDS011;66869;57.706;11.922;2023-05-10T13:47:34;0.80;;;0.80;;
13002;SDS011;66869;57.706;11.922;2023-05-10T13:50:00;1.65;;;0.70;;
13002;SDS011;66869;57.706;11.922;2023-05-10T13:52:27;1.45;;;0.60;;
13002;SDS011;66869;57.706;11.922;2023-05-10T13:54:52;1.60;;;0.70;;
13002;SDS011;66869;57.706;11.922;2023-05-10T13:57:20;1.25;;;0.50;;
13002;SDS011;66869;57.706;11.922;2023-05-10T13:59:47;0.57;;;0.57;;
13002;SDS011;66869;57.706;11.922;2023-05-10T14:02:14;0.40;;;0.40;;
13002;SDS011;66869;57.706;11.922;2023-05-10T14:04:40;0.40;;;0.40;;
13002;SDS011;66869;57.706;11.922;2023-05-10T14:07:06;0.35;;;0.35;;
13002;SDS011;66869;57.706;11.922;2023-05-10T14:09:33;0.30;;;0.30;;
13002;SDS011;66869;57.706;11.922;2023-05-10T14:11:58;0.25;;;0.25;;
13002;SDS011;66869;57.706;11.922;2023-05-10T14:14:25;0.22;;;0.22;;
13002;SDS011;66869;57.706;11.922;2023-05-10T14:16:52;0.28;;;0.28;;
13002;SDS011;66869;57.706;11.922;2023-05-10T14:19:18;1.15;;;0.50;;
13002;SDS011;66869;57.706;11.922;2023-05-10T14:21:44;0.90;;;0.35;;
13002;SDS011;66869;57.706;11.922;2023-05-10T14:24:11;0.30;;;0.30;;
13002;SDS011;66869;57.706;11.922;2023-05-10T14:26:48;0.30;;;0.30;;
13002;SDS011;66869;57.706;11.922;2023-05-10T14:29:13;0.22;;;0.22;;
13002;SDS011;66869;57.706;11.922;2023-05-10T14:31:39;0.30;;;0.30;;
13002;SDS011;66869;57.706;11.922;2023-05-10T14:34:06;0.20;;;0.20;;
13002;SDS011;66869;57.706;11.922;2023-05-10T14:36:33;0.35;;;0.35;;
13002;SDS011;66869;57.706;11.922;2023-05-10T14:38:59;0.30;;;0.30;;
13002;SDS011;66869;57.706;11.922;2023-05-10T14:41:26;0.30;;;0.30;;
13002;SDS011;66869;57.706;11.922;2023-05-10T14:43:52;0.50;;;0.20;;
13002;SDS011;66869;57.706;11.922;2023-05-10T14:46:19;0.43;;;0.20;;
13002;SDS011;66869;57.706;11.922;2023-05-10T14:48:46;0.30;;;0.30;;
13002;SDS011;66869;57.706;11.922;2023-05-10T14:51:13;0.20;;;0.20;;
13002;SDS011;66869;57.706;11.922;2023-05-10T14:53:38;0.10;;;0.10;;
13002;SDS011;66869;57.706;11.922;2023-05-10T14:56:05;0.20;;;0.20;;
13002;SDS011;66869;57.706;11.922;2023-05-10T14:58:31;0.20;;;0.20;;
13002;SDS011;66869;57.706;11.922;2023-05-10T15:00:58;0.32;;;0.20;;
13002;SDS011;66869;57.706;11.922;2023-05-10T15:03:24;0.45;;;0.45;;
13002;SDS011;66869;57.706;11.922;2023-05-10T15:05:51;0.40;;;0.40;;